sensor_id;sensor_type;location;lat;lon;timestamp;temperature;humidity
3794;DHT22;1912;51.358;12.282;2022-07-25T00:01:43;21.60;1.00
3794;DHT22;1912;51.358;12.282;2022-07-25T00:04:09;21.60;1.00
3794;DHT22;1912;51.358;12.282;2022-07-25T00:06:39;21.50;1.00
3794;DHT22;1912;51.358;12.282;2022-07-25T00:09:06;21.50;1.00
3794;DHT22;1912;51.358;12.282;2022-07-25T00:11:32;21.50;1.00
3794;DHT22;1912;51.358;12.282;2022-07-25T00:13:58;21.50;1.00
3794;DHT22;1912;51.358;12.282;2022-07-25T00:16:23;21.50;1.00
3794;DHT22;1912;51.358;12.282;2022-07-25T00:18:49;21.40;1.00
3794;DHT22;1912;51.358;12.282;2022-07-25T00:21:15;21.40;1.00
3794;DHT22;1912;51.358;12.282;2022-07-25T00:23:40;21.30;1.00
3794;DHT22;1912;51.358;12.282;2022-07-25T00:26:06;21.30;1.00
3794;DHT22;1912;51.358;12.282;2022-07-25T00:28:32;21.30;1.00
3794;DHT22;1912;51.358;12.282;2022-07-25T00:30:57;21.40;1.00
3794;DHT22;1912;51.358;12.282;2022-07-25T00:33:23;21.30;1.00
3794;DHT22;1912;51.358;12.282;2022-07-25T00:35:49;21.40;1.00
3794;DHT22;1912;51.358;12.282;2022-07-25T00:38:14;21.30;1.00
3794;DHT22;1912;51.358;12.282;2022-07-25T00:40:40;21.30;1.00
3794;DHT22;1912;51.358;12.282;2022-07-25T00:43:06;21.30;1.00
3794;DHT22;1912;51.358;12.282;2022-07-25T00:45:32;21.30;1.00
3794;DHT22;1912;51.358;12.282;2022-07-25T00:47:57;21.30;1.00
3794;DHT22;1912;51.358;12.282;2022-07-25T00:50:23;21.30;1.00
3794;DHT22;1912;51.358;12.282;2022-07-25T00:52:49;21.30;1.00
3794;DHT22;1912;51.358;12.282;2022-07-25T00:55:15;21.30;1.00
3794;DHT22;1912;51.358;12.282;2022-07-25T00:57:41;21.30;1.00
3794;DHT22;1912;51.358;12.282;2022-07-25T01:00:11;21.30;1.00
3794;DHT22;1912;51.358;12.282;2022-07-25T01:02:39;21.40;1.00
3794;DHT22;1912;51.358;12.282;2022-07-25T01:05:06;21.40;1.00
3794;DHT22;1912;51.358;12.282;2022-07-25T01:07:32;21.40;1.00
3794;DHT22;1912;51.358;12.282;2022-07-25T01:10:00;21.40;1.00
3794;DHT22;1912;51.358;12.282;2022-07-25T01:12:26;21.40;1.00
3794;DHT22;1912;51.358;12.282;2022-07-25T01:14:52;21.30;1.00
3794;DHT22;1912;51.358;12.282;2022-07-25T01:17:17;21.40;1.00
3794;DHT22;1912;51.358;12.282;2022-07-25T01:19:43;21.40;1.00
3794;DHT22;1912;51.358;12.282;2022-07-25T01:22:10;21.30;1.00
3794;DHT22;1912;51.358;12.282;2022-07-25T01:24:38;21.30;1.00
3794;DHT22;1912;51.358;12.282;2022-07-25T01:27:04;21.40;1.00
3794;DHT22;1912;51.358;12.282;2022-07-25T01:29:29;21.30;1.00
3794;DHT22;1912;51.358;12.282;2022-07-25T01:31:55;21.30;1.00
3794;DHT22;1912;51.358;12.282;2022-07-25T01:34:21;21.30;1.00
3794;DHT22;1912;51.358;12.282;2022-07-25T01:36:46;21.30;1.00
3794;DHT22;1912;51.358;12.282;2022-07-25T01:39:12;21.30;1.00
3794;DHT22;1912;51.358;12.282;2022-07-25T01:41:38;21.30;1.00
3794;DHT22;1912;51.358;12.282;2022-07-25T01:44:03;21.30;1.00
3794;DHT22;1912;51.358;12.282;2022-07-25T01:46:29;21.30;1.00
3794;DHT22;1912;51.358;12.282;2022-07-25T01:48:55;21.30;1.00
3794;DHT22;1912;51.358;12.282;2022-07-25T01:51:20;21.20;1.00
3794;DHT22;1912;51.358;12.282;2022-07-25T01:53:46;21.20;1.00
3794;DHT22;1912;51.358;12.282;2022-07-25T01:56:12;21.10;1.00
3794;DHT22;1912;51.358;12.282;2022-07-25T01:58:38;21.20;1.00
3794;DHT22;1912;51.358;12.282;2022-07-25T02:01:04;21.10;1.00
3794;DHT22;1912;51.358;12.282;2022-07-25T02:03:29;21.10;1.00
3794;DHT22;1912;51.358;12.282;2022-07-25T02:06:00;21.00;1.00
3794;DHT22;1912;51.358;12.282;2022-07-25T02:08:28;21.00;1.00
3794;DHT22;1912;51.358;12.282;2022-07-25T02:10:55;21.10;1.00
3794;DHT22;1912;51.358;12.282;2022-07-25T02:13:21;21.00;1.00
3794;DHT22;1912;51.358;12.282;2022-07-25T02:15:47;21.00;1.00
3794;DHT22;1912;51.358;12.282;2022-07-25T02:18:14;21.00;1.00
3794;DHT22;1912;51.358;12.282;2022-07-25T02:20:39;21.00;1.00
3794;DHT22;1912;51.358;12.282;2022-07-25T02:23:05;21.10;1.00
3794;DHT22;1912;51.358;12.282;2022-07-25T02:25:31;21.10;1.00
3794;DHT22;1912;51.358;12.282;2022-07-25T02:27:57;21.00;1.00
3794;DHT22;1912;51.358;12.282;2022-07-25T02:30:23;21.10;1.00
3794;DHT22;1912;51.358;12.282;2022-07-25T02:32:50;21.00;1.00
3794;DHT22;1912;51.358;12.282;2022-07-25T02:35:16;20.90;1.00
3794;DHT22;1912;51.358;12.282;2022-07-25T02:37:43;20.90;1.00
3794;DHT22;1912;51.358;12.282;2022-07-25T02:40:09;20.80;1.00
3794;DHT22;1912;51.358;12.282;2022-07-25T02:42:36;20.80;1.00
3794;DHT22;1912;51.358;12.282;2022-07-25T02:45:02;20.70;1.00
3794;DHT22;1912;51.358;12.282;2022-07-25T02:47:28;20.60;1.00
3794;DHT22;1912;51.358;12.282;2022-07-25T02:49:54;20.50;1.00
3794;DHT22;1912;51.358;12.282;2022-07-25T02:52:19;20.50;1.00
3794;DHT22;1912;51.358;12.282;2022-07-25T02:54:45;20.40;1.00
3794;DHT22;1912;51.358;12.282;2022-07-25T02:57:11;20.40;1.00
3794;DHT22;1912;51.358;12.282;2022-07-25T03:03:17;20.40;1.00
3794;DHT22;1912;51.358;12.282;2022-07-25T03:05:42;20.40;1.00
3794;DHT22;1912;51.358;12.282;2022-07-25T03:08:08;20.30;1.00
3794;DHT22;1912;51.358;12.282;2022-07-25T03:14:14;20.30;1.00
3794;DHT22;1912;51.358;12.282;2022-07-25T03:16:40;20.30;1.00
3794;DHT22;1912;51.358;12.282;2022-07-25T03:19:06;20.30;1.00
3794;DHT22;1912;51.358;12.282;2022-07-25T03:21:35;20.30;1.00
3794;DHT22;1912;51.358;12.282;2022-07-25T03:24:01;20.30;1.00
3794;DHT22;1912;51.358;12.282;2022-07-25T03:26:27;20.30;1.00
3794;DHT22;1912;51.358;12.282;2022-07-25T03:28:53;20.30;1.00
3794;DHT22;1912;51.358;12.282;2022-07-25T03:31:19;20.30;1.00
3794;DHT22;1912;51.358;12.282;2022-07-25T03:33:44;20.30;1.00
3794;DHT22;1912;51.358;12.282;2022-07-25T03:36:10;20.30;1.00
3794;DHT22;1912;51.358;12.282;2022-07-25T03:38:36;20.30;1.00
3794;DHT22;1912;51.358;12.282;2022-07-25T03:41:02;20.30;1.00
3794;DHT22;1912;51.358;12.282;2022-07-25T03:43:29;20.30;1.00
3794;DHT22;1912;51.358;12.282;2022-07-25T03:45:55;20.30;1.00
3794;DHT22;1912;51.358;12.282;2022-07-25T03:48:21;20.30;1.00
3794;DHT22;1912;51.358;12.282;2022-07-25T03:50:47;20.20;1.00
3794;DHT22;1912;51.358;12.282;2022-07-25T03:53:12;20.30;1.00
3794;DHT22;1912;51.358;12.282;2022-07-25T03:55:38;20.30;1.00
3794;DHT22;1912;51.358;12.282;2022-07-25T03:58:04;20.30;1.00
3794;DHT22;1912;51.358;12.282;2022-07-25T04:04:11;20.30;1.00
3794;DHT22;1912;51.358;12.282;2022-07-25T04:06:37;20.40;1.00
3794;DHT22;1912;51.358;12.282;2022-07-25T04:09:04;20.40;1.00
3794;DHT22;1912;51.358;12.282;2022-07-25T04:11:31;20.40;1.00
3794;DHT22;1912;51.358;12.282;2022-07-25T04:13:57;20.40;1.00
3794;DHT22;1912;51.358;12.282;2022-07-25T04:16:23;20.40;1.00
3794;DHT22;1912;51.358;12.282;2022-07-25T04:18:50;20.40;1.00
3794;DHT22;1912;51.358;12.282;2022-07-25T04:21:16;20.40;1.00
3794;DHT22;1912;51.358;12.282;2022-07-25T04:23:42;20.50;1.00
3794;DHT22;1912;51.358;12.282;2022-07-25T04:26:07;20.50;1.00
3794;DHT22;1912;51.358;12.282;2022-07-25T04:28:33;20.50;1.00
3794;DHT22;1912;51.358;12.282;2022-07-25T04:30:59;20.50;1.00
3794;DHT22;1912;51.358;12.282;2022-07-25T04:33:25;20.60;1.00
3794;DHT22;1912;51.358;12.282;2022-07-25T04:35:50;20.60;1.00
3794;DHT22;1912;51.358;12.282;2022-07-25T04:38:16;20.70;1.00
3794;DHT22;1912;51.358;12.282;2022-07-25T04:44:23;20.70;1.00
3794;DHT22;1912;51.358;12.282;2022-07-25T04:46:49;20.80;1.00
3794;DHT22;1912;51.358;12.282;2022-07-25T04:49:14;20.80;1.00
3794;DHT22;1912;51.358;12.282;2022-07-25T04:51:40;20.90;1.00
3794;DHT22;1912;51.358;12.282;2022-07-25T04:54:06;20.90;1.00
3794;DHT22;1912;51.358;12.282;2022-07-25T04:56:31;21.00;1.00
3794;DHT22;1912;51.358;12.282;2022-07-25T04:58:57;21.00;1.00
3794;DHT22;1912;51.358;12.282;2022-07-25T05:01:23;21.00;1.00
3794;DHT22;1912;51.358;12.282;2022-07-25T05:03:48;21.10;1.00
3794;DHT22;1912;51.358;12.282;2022-07-25T05:06:14;21.10;1.00
3794;DHT22;1912;51.358;12.282;2022-07-25T05:08:40;21.20;1.00
3794;DHT22;1912;51.358;12.282;2022-07-25T05:11:05;21.30;1.00
3794;DHT22;1912;51.358;12.282;2022-07-25T05:13:31;21.30;1.00
3794;DHT22;1912;51.358;12.282;2022-07-25T05:15:56;21.40;1.00
3794;DHT22;1912;51.358;12.282;2022-07-25T05:18:22;21.40;1.00
3794;DHT22;1912;51.358;12.282;2022-07-25T05:20:48;21.60;1.00
3794;DHT22;1912;51.358;12.282;2022-07-25T05:23:13;21.60;1.00
3794;DHT22;1912;51.358;12.282;2022-07-25T05:25:39;21.70;1.00
3794;DHT22;1912;51.358;12.282;2022-07-25T05:28:05;21.80;1.00
3794;DHT22;1912;51.358;12.282;2022-07-25T05:30:30;21.90;1.00
3794;DHT22;1912;51.358;12.282;2022-07-25T05:32:56;22.00;1.00
3794;DHT22;1912;51.358;12.282;2022-07-25T05:35:22;22.40;1.00
3794;DHT22;1912;51.358;12.282;2022-07-25T05:37:47;23.00;1.00
3794;DHT22;1912;51.358;12.282;2022-07-25T05:40:13;23.60;1.00
3794;DHT22;1912;51.358;12.282;2022-07-25T05:42:39;24.10;1.00
3794;DHT22;1912;51.358;12.282;2022-07-25T05:45:05;24.50;1.00
3794;DHT22;1912;51.358;12.282;2022-07-25T05:47:31;24.90;1.00
3794;DHT22;1912;51.358;12.282;2022-07-25T05:49:56;25.30;1.00
3794;DHT22;1912;51.358;12.282;2022-07-25T05:52:22;25.40;1.00
3794;DHT22;1912;51.358;12.282;2022-07-25T05:54:48;25.60;1.00
3794;DHT22;1912;51.358;12.282;2022-07-25T05:57:14;25.80;1.00
3794;DHT22;1912;51.358;12.282;2022-07-25T05:59:40;26.10;1.00
3794;DHT22;1912;51.358;12.282;2022-07-25T06:02:06;26.40;1.00
3794;DHT22;1912;51.358;12.282;2022-07-25T06:04:32;26.50;1.00
3794;DHT22;1912;51.358;12.282;2022-07-25T06:06:58;26.70;1.00
3794;DHT22;1912;51.358;12.282;2022-07-25T06:09:23;26.70;1.00
3794;DHT22;1912;51.358;12.282;2022-07-25T06:11:49;26.80;1.00
3794;DHT22;1912;51.358;12.282;2022-07-25T06:14:15;27.10;1.00
3794;DHT22;1912;51.358;12.282;2022-07-25T06:16:41;27.30;1.00
3794;DHT22;1912;51.358;12.282;2022-07-25T06:19:07;27.30;1.00
3794;DHT22;1912;51.358;12.282;2022-07-25T06:21:33;27.30;1.00
3794;DHT22;1912;51.358;12.282;2022-07-25T06:23:59;27.40;1.00
3794;DHT22;1912;51.358;12.282;2022-07-25T06:26:24;27.50;1.00
3794;DHT22;1912;51.358;12.282;2022-07-25T06:28:50;27.60;1.00
3794;DHT22;1912;51.358;12.282;2022-07-25T06:31:17;27.50;1.00
3794;DHT22;1912;51.358;12.282;2022-07-25T06:33:43;27.50;1.00
3794;DHT22;1912;51.358;12.282;2022-07-25T06:36:09;27.80;1.00
3794;DHT22;1912;51.358;12.282;2022-07-25T06:38:35;27.90;1.00
3794;DHT22;1912;51.358;12.282;2022-07-25T06:41:01;27.90;1.00
3794;DHT22;1912;51.358;12.282;2022-07-25T06:43:26;28.10;1.00
3794;DHT22;1912;51.358;12.282;2022-07-25T06:45:52;28.10;1.00
3794;DHT22;1912;51.358;12.282;2022-07-25T06:48:18;28.10;1.00
3794;DHT22;1912;51.358;12.282;2022-07-25T06:50:43;28.10;1.00
3794;DHT22;1912;51.358;12.282;2022-07-25T06:53:09;28.10;1.00
3794;DHT22;1912;51.358;12.282;2022-07-25T06:55:35;28.00;1.00
3794;DHT22;1912;51.358;12.282;2022-07-25T06:58:01;28.00;1.00
3794;DHT22;1912;51.358;12.282;2022-07-25T07:00:27;28.20;1.00
3794;DHT22;1912;51.358;12.282;2022-07-25T07:02:58;28.30;1.00
3794;DHT22;1912;51.358;12.282;2022-07-25T07:05:28;28.40;1.00
3794;DHT22;1912;51.358;12.282;2022-07-25T07:07:55;28.50;1.00
3794;DHT22;1912;51.358;12.282;2022-07-25T07:10:21;28.60;1.00
3794;DHT22;1912;51.358;12.282;2022-07-25T07:12:48;28.90;1.00
3794;DHT22;1912;51.358;12.282;2022-07-25T07:15:14;29.00;1.00
3794;DHT22;1912;51.358;12.282;2022-07-25T07:17:40;29.20;1.00
3794;DHT22;1912;51.358;12.282;2022-07-25T07:20:07;29.30;1.00
3794;DHT22;1912;51.358;12.282;2022-07-25T07:22:46;29.10;1.00
3794;DHT22;1912;51.358;12.282;2022-07-25T07:25:14;29.40;1.00
3794;DHT22;1912;51.358;12.282;2022-07-25T07:27:41;29.60;1.00
3794;DHT22;1912;51.358;12.282;2022-07-25T07:30:08;29.70;1.00
3794;DHT22;1912;51.358;12.282;2022-07-25T07:32:34;30.10;1.00
3794;DHT22;1912;51.358;12.282;2022-07-25T07:35:00;30.30;1.00
3794;DHT22;1912;51.358;12.282;2022-07-25T07:37:26;30.50;1.00
3794;DHT22;1912;51.358;12.282;2022-07-25T07:39:51;30.70;1.00
3794;DHT22;1912;51.358;12.282;2022-07-25T07:42:17;30.60;1.00
3794;DHT22;1912;51.358;12.282;2022-07-25T07:44:43;30.70;1.00
3794;DHT22;1912;51.358;12.282;2022-07-25T07:47:08;31.00;1.00
3794;DHT22;1912;51.358;12.282;2022-07-25T07:49:34;31.20;1.00
3794;DHT22;1912;51.358;12.282;2022-07-25T07:52:00;31.10;1.00
3794;DHT22;1912;51.358;12.282;2022-07-25T07:54:25;31.40;1.00
3794;DHT22;1912;51.358;12.282;2022-07-25T07:57:09;31.50;1.00
3794;DHT22;1912;51.358;12.282;2022-07-25T07:59:35;31.80;1.00
3794;DHT22;1912;51.358;12.282;2022-07-25T08:02:00;31.90;1.00
3794;DHT22;1912;51.358;12.282;2022-07-25T08:04:26;32.00;1.00
3794;DHT22;1912;51.358;12.282;2022-07-25T08:06:52;32.20;1.00
3794;DHT22;1912;51.358;12.282;2022-07-25T08:09:17;32.50;1.00
3794;DHT22;1912;51.358;12.282;2022-07-25T08:11:43;32.50;1.00
3794;DHT22;1912;51.358;12.282;2022-07-25T08:14:09;32.80;1.00
3794;DHT22;1912;51.358;12.282;2022-07-25T08:16:35;32.90;1.00
3794;DHT22;1912;51.358;12.282;2022-07-25T08:19:00;32.80;1.00
3794;DHT22;1912;51.358;12.282;2022-07-25T08:21:26;33.00;1.00
3794;DHT22;1912;51.358;12.282;2022-07-25T08:23:53;32.70;1.00
3794;DHT22;1912;51.358;12.282;2022-07-25T08:26:19;33.00;1.00
3794;DHT22;1912;51.358;12.282;2022-07-25T08:28:44;32.70;1.00
3794;DHT22;1912;51.358;12.282;2022-07-25T08:31:10;33.20;1.00
3794;DHT22;1912;51.358;12.282;2022-07-25T08:33:36;33.40;1.00
3794;DHT22;1912;51.358;12.282;2022-07-25T08:36:01;33.70;1.00
3794;DHT22;1912;51.358;12.282;2022-07-25T08:38:28;33.60;1.00
3794;DHT22;1912;51.358;12.282;2022-07-25T08:40:55;33.80;1.00
3794;DHT22;1912;51.358;12.282;2022-07-25T08:43:21;33.70;1.00
3794;DHT22;1912;51.358;12.282;2022-07-25T08:45:49;33.90;1.00
3794;DHT22;1912;51.358;12.282;2022-07-25T08:48:18;33.70;1.00
3794;DHT22;1912;51.358;12.282;2022-07-25T08:50:47;34.00;1.00
3794;DHT22;1912;51.358;12.282;2022-07-25T08:53:14;33.80;1.00
3794;DHT22;1912;51.358;12.282;2022-07-25T08:55:42;33.90;1.00
3794;DHT22;1912;51.358;12.282;2022-07-25T08:58:12;34.10;1.00
3794;DHT22;1912;51.358;12.282;2022-07-25T09:00:39;34.10;1.00
3794;DHT22;1912;51.358;12.282;2022-07-25T09:03:06;33.70;1.00
3794;DHT22;1912;51.358;12.282;2022-07-25T09:05:32;33.70;1.00
3794;DHT22;1912;51.358;12.282;2022-07-25T09:08:15;33.90;1.00
3794;DHT22;1912;51.358;12.282;2022-07-25T09:10:49;34.40;1.00
3794;DHT22;1912;51.358;12.282;2022-07-25T09:13:17;34.90;1.00
3794;DHT22;1912;51.358;12.282;2022-07-25T09:15:44;35.40;1.00
3794;DHT22;1912;51.358;12.282;2022-07-25T09:18:13;35.40;1.00
3794;DHT22;1912;51.358;12.282;2022-07-25T09:20:52;35.30;1.00
3794;DHT22;1912;51.358;12.282;2022-07-25T09:23:35;35.00;1.00
3794;DHT22;1912;51.358;12.282;2022-07-25T09:26:05;35.50;1.00
3794;DHT22;1912;51.358;12.282;2022-07-25T09:28:31;36.00;1.00
3794;DHT22;1912;51.358;12.282;2022-07-25T09:30:59;36.40;1.00
3794;DHT22;1912;51.358;12.282;2022-07-25T09:33:27;36.60;1.00
3794;DHT22;1912;51.358;12.282;2022-07-25T09:35:54;36.20;1.00
3794;DHT22;1912;51.358;12.282;2022-07-25T09:38:21;36.30;1.00
3794;DHT22;1912;51.358;12.282;2022-07-25T09:41:00;35.60;1.00
3794;DHT22;1912;51.358;12.282;2022-07-25T09:43:37;36.20;1.00
3794;DHT22;1912;51.358;12.282;2022-07-25T09:46:08;36.70;1.00
3794;DHT22;1912;51.358;12.282;2022-07-25T09:48:36;36.80;1.00
3794;DHT22;1912;51.358;12.282;2022-07-25T09:51:04;37.00;1.00
3794;DHT22;1912;51.358;12.282;2022-07-25T09:53:31;37.10;1.00
3794;DHT22;1912;51.358;12.282;2022-07-25T09:55:57;37.30;1.00
3794;DHT22;1912;51.358;12.282;2022-07-25T09:58:24;37.50;1.00
3794;DHT22;1912;51.358;12.282;2022-07-25T10:00:54;37.70;1.00
3794;DHT22;1912;51.358;12.282;2022-07-25T10:06:27;38.10;1.00
3794;DHT22;1912;51.358;12.282;2022-07-25T10:08:58;38.30;1.00
3794;DHT22;1912;51.358;12.282;2022-07-25T10:11:26;37.60;1.00
3794;DHT22;1912;51.358;12.282;2022-07-25T10:13:53;37.80;1.00
3794;DHT22;1912;51.358;12.282;2022-07-25T10:16:21;38.00;1.00
3794;DHT22;1912;51.358;12.282;2022-07-25T10:18:52;38.30;1.00
3794;DHT22;1912;51.358;12.282;2022-07-25T10:21:20;38.40;1.00
3794;DHT22;1912;51.358;12.282;2022-07-25T10:24:03;38.10;1.00
3794;DHT22;1912;51.358;12.282;2022-07-25T10:26:30;38.40;1.00
3794;DHT22;1912;51.358;12.282;2022-07-25T10:28:57;38.20;1.00
3794;DHT22;1912;51.358;12.282;2022-07-25T10:33:58;38.40;1.00
3794;DHT22;1912;51.358;12.282;2022-07-25T10:36:44;37.30;1.00
3794;DHT22;1912;51.358;12.282;2022-07-25T10:39:17;36.60;1.00
3794;DHT22;1912;51.358;12.282;2022-07-25T10:41:52;37.30;1.00
3794;DHT22;1912;51.358;12.282;2022-07-25T10:44:20;37.40;1.00
3794;DHT22;1912;51.358;12.282;2022-07-25T10:46:46;36.20;1.00
3794;DHT22;1912;51.358;12.282;2022-07-25T10:49:22;36.60;1.00
3794;DHT22;1912;51.358;12.282;2022-07-25T10:51:58;37.00;1.00
3794;DHT22;1912;51.358;12.282;2022-07-25T10:54:30;37.30;1.00
3794;DHT22;1912;51.358;12.282;2022-07-25T10:56:59;37.50;1.00
3794;DHT22;1912;51.358;12.282;2022-07-25T10:59:30;38.20;1.00
3794;DHT22;1912;51.358;12.282;2022-07-25T11:01:58;38.30;1.00
3794;DHT22;1912;51.358;12.282;2022-07-25T11:04:24;38.30;1.00
3794;DHT22;1912;51.358;12.282;2022-07-25T11:06:51;37.10;1.00
3794;DHT22;1912;51.358;12.282;2022-07-25T11:09:18;37.30;1.00
3794;DHT22;1912;51.358;12.282;2022-07-25T11:11:47;37.10;1.00
3794;DHT22;1912;51.358;12.282;2022-07-25T11:14:25;37.50;1.00
3794;DHT22;1912;51.358;12.282;2022-07-25T11:16:55;38.60;1.00
3794;DHT22;1912;51.358;12.282;2022-07-25T11:19:24;38.80;1.00
3794;DHT22;1912;51.358;12.282;2022-07-25T11:21:55;38.60;1.00
3794;DHT22;1912;51.358;12.282;2022-07-25T11:24:38;38.20;1.00
3794;DHT22;1912;51.358;12.282;2022-07-25T11:27:07;38.40;1.00
3794;DHT22;1912;51.358;12.282;2022-07-25T11:29:34;39.20;1.00
3794;DHT22;1912;51.358;12.282;2022-07-25T11:32:08;39.20;1.00
3794;DHT22;1912;51.358;12.282;2022-07-25T11:34:46;39.70;1.00
3794;DHT22;1912;51.358;12.282;2022-07-25T11:37:13;39.40;1.00
3794;DHT22;1912;51.358;12.282;2022-07-25T11:39:42;39.30;1.00
3794;DHT22;1912;51.358;12.282;2022-07-25T11:42:14;39.30;1.00
3794;DHT22;1912;51.358;12.282;2022-07-25T11:44:50;38.40;1.00
3794;DHT22;1912;51.358;12.282;2022-07-25T11:47:35;38.70;1.00
3794;DHT22;1912;51.358;12.282;2022-07-25T11:50:03;38.60;1.00
3794;DHT22;1912;51.358;12.282;2022-07-25T11:52:32;38.50;1.00
3794;DHT22;1912;51.358;12.282;2022-07-25T11:55:11;39.10;1.00
3794;DHT22;1912;51.358;12.282;2022-07-25T11:57:41;39.20;1.00
3794;DHT22;1912;51.358;12.282;2022-07-25T12:00:18;39.50;1.00
3794;DHT22;1912;51.358;12.282;2022-07-25T12:02:45;38.80;1.00
3794;DHT22;1912;51.358;12.282;2022-07-25T12:05:14;38.40;1.00
3794;DHT22;1912;51.358;12.282;2022-07-25T12:12:51;38.20;1.00
3794;DHT22;1912;51.358;12.282;2022-07-25T12:15:24;38.30;1.00
3794;DHT22;1912;51.358;12.282;2022-07-25T12:17:53;38.60;1.00
3794;DHT22;1912;51.358;12.282;2022-07-25T12:20:26;39.30;1.00
3794;DHT22;1912;51.358;12.282;2022-07-25T12:22:55;39.90;99.90
3794;DHT22;1912;51.358;12.282;2022-07-25T12:25:23;39.20;1.00
3794;DHT22;1912;51.358;12.282;2022-07-25T12:27:49;39.30;1.00
3794;DHT22;1912;51.358;12.282;2022-07-25T12:30:16;38.80;1.00
3794;DHT22;1912;51.358;12.282;2022-07-25T12:32:42;39.90;1.00
3794;DHT22;1912;51.358;12.282;2022-07-25T12:35:10;39.70;99.90
3794;DHT22;1912;51.358;12.282;2022-07-25T12:37:39;40.30;99.90
3794;DHT22;1912;51.358;12.282;2022-07-25T12:40:06;40.80;99.90
3794;DHT22;1912;51.358;12.282;2022-07-25T12:42:32;40.30;99.90
3794;DHT22;1912;51.358;12.282;2022-07-25T12:44:59;39.40;99.90
3794;DHT22;1912;51.358;12.282;2022-07-25T12:47:26;39.10;99.90
3794;DHT22;1912;51.358;12.282;2022-07-25T12:53:33;39.90;99.90
3794;DHT22;1912;51.358;12.282;2022-07-25T12:55:58;39.50;99.90
3794;DHT22;1912;51.358;12.282;2022-07-25T12:58:24;39.70;99.90
3794;DHT22;1912;51.358;12.282;2022-07-25T13:00:49;39.80;1.00
3794;DHT22;1912;51.358;12.282;2022-07-25T13:03:16;39.90;99.90
3794;DHT22;1912;51.358;12.282;2022-07-25T13:05:42;39.60;99.90
3794;DHT22;1912;51.358;12.282;2022-07-25T13:08:07;39.40;99.90
3794;DHT22;1912;51.358;12.282;2022-07-25T13:10:33;39.60;99.90
3794;DHT22;1912;51.358;12.282;2022-07-25T13:12:59;39.80;99.90
3794;DHT22;1912;51.358;12.282;2022-07-25T13:15:24;39.70;99.90
3794;DHT22;1912;51.358;12.282;2022-07-25T13:17:52;39.50;99.90
3794;DHT22;1912;51.358;12.282;2022-07-25T13:20:18;39.20;99.90
3794;DHT22;1912;51.358;12.282;2022-07-25T13:22:44;38.90;1.00
3794;DHT22;1912;51.358;12.282;2022-07-25T13:25:10;38.60;1.00
3794;DHT22;1912;51.358;12.282;2022-07-25T13:27:36;38.20;1.00
3794;DHT22;1912;51.358;12.282;2022-07-25T13:30:03;37.80;1.00
3794;DHT22;1912;51.358;12.282;2022-07-25T13:32:30;37.50;1.00
3794;DHT22;1912;51.358;12.282;2022-07-25T13:34:56;37.40;1.00
3794;DHT22;1912;51.358;12.282;2022-07-25T13:37:22;37.50;1.00
3794;DHT22;1912;51.358;12.282;2022-07-25T13:39:47;37.60;1.00
3794;DHT22;1912;51.358;12.282;2022-07-25T13:42:13;37.90;1.00
3794;DHT22;1912;51.358;12.282;2022-07-25T13:44:39;38.20;1.00
3794;DHT22;1912;51.358;12.282;2022-07-25T13:47:04;38.30;1.00
3794;DHT22;1912;51.358;12.282;2022-07-25T13:49:30;37.90;1.00
3794;DHT22;1912;51.358;12.282;2022-07-25T13:51:56;37.40;1.00
3794;DHT22;1912;51.358;12.282;2022-07-25T13:54:22;37.00;1.00
3794;DHT22;1912;51.358;12.282;2022-07-25T13:56:47;37.20;1.00
3794;DHT22;1912;51.358;12.282;2022-07-25T13:59:13;37.20;1.00
3794;DHT22;1912;51.358;12.282;2022-07-25T14:01:39;37.20;1.00
3794;DHT22;1912;51.358;12.282;2022-07-25T14:04:04;37.40;1.00
3794;DHT22;1912;51.358;12.282;2022-07-25T14:06:30;37.30;1.00
3794;DHT22;1912;51.358;12.282;2022-07-25T14:08:56;37.50;1.00
3794;DHT22;1912;51.358;12.282;2022-07-25T14:11:21;37.50;1.00
3794;DHT22;1912;51.358;12.282;2022-07-25T14:13:47;37.10;1.00
3794;DHT22;1912;51.358;12.282;2022-07-25T14:16:13;37.30;1.00
3794;DHT22;1912;51.358;12.282;2022-07-25T14:18:40;37.50;1.00
3794;DHT22;1912;51.358;12.282;2022-07-25T14:21:06;37.50;1.00
3794;DHT22;1912;51.358;12.282;2022-07-25T14:23:32;37.50;1.00
3794;DHT22;1912;51.358;12.282;2022-07-25T14:25:58;38.10;1.00
3794;DHT22;1912;51.358;12.282;2022-07-25T14:28:24;38.30;1.00
3794;DHT22;1912;51.358;12.282;2022-07-25T14:30:49;37.60;1.00
3794;DHT22;1912;51.358;12.282;2022-07-25T14:33:15;37.60;1.00
3794;DHT22;1912;51.358;12.282;2022-07-25T14:35:41;37.70;1.00
3794;DHT22;1912;51.358;12.282;2022-07-25T14:38:07;37.60;1.00
3794;DHT22;1912;51.358;12.282;2022-07-25T14:40:33;37.40;1.00
3794;DHT22;1912;51.358;12.282;2022-07-25T14:42:58;37.00;1.00
3794;DHT22;1912;51.358;12.282;2022-07-25T14:45:24;37.00;1.00
3794;DHT22;1912;51.358;12.282;2022-07-25T14:47:50;36.70;1.00
3794;DHT22;1912;51.358;12.282;2022-07-25T14:50:15;36.40;1.00
3794;DHT22;1912;51.358;12.282;2022-07-25T14:52:41;36.20;1.00
3794;DHT22;1912;51.358;12.282;2022-07-25T14:55:07;36.00;1.00
3794;DHT22;1912;51.358;12.282;2022-07-25T14:57:33;36.00;1.00
3794;DHT22;1912;51.358;12.282;2022-07-25T15:03:40;36.10;1.00
3794;DHT22;1912;51.358;12.282;2022-07-25T15:06:05;36.10;1.00
3794;DHT22;1912;51.358;12.282;2022-07-25T15:08:35;36.20;1.00
3794;DHT22;1912;51.358;12.282;2022-07-25T15:11:01;36.20;1.00
3794;DHT22;1912;51.358;12.282;2022-07-25T15:13:26;36.20;1.00
3794;DHT22;1912;51.358;12.282;2022-07-25T15:15:52;36.20;1.00
3794;DHT22;1912;51.358;12.282;2022-07-25T15:18:18;36.20;1.00
3794;DHT22;1912;51.358;12.282;2022-07-25T15:20:43;36.10;1.00
3794;DHT22;1912;51.358;12.282;2022-07-25T15:23:09;36.00;1.00
3794;DHT22;1912;51.358;12.282;2022-07-25T15:25:35;36.20;1.00
3794;DHT22;1912;51.358;12.282;2022-07-25T15:28:00;36.20;1.00
3794;DHT22;1912;51.358;12.282;2022-07-25T15:30:26;36.30;1.00
3794;DHT22;1912;51.358;12.282;2022-07-25T15:32:52;36.50;1.00
3794;DHT22;1912;51.358;12.282;2022-07-25T15:35:17;36.60;1.00
3794;DHT22;1912;51.358;12.282;2022-07-25T15:37:43;36.60;1.00
3794;DHT22;1912;51.358;12.282;2022-07-25T15:40:09;36.60;1.00
3794;DHT22;1912;51.358;12.282;2022-07-25T15:42:37;36.70;1.00
3794;DHT22;1912;51.358;12.282;2022-07-25T15:45:03;36.80;1.00
3794;DHT22;1912;51.358;12.282;2022-07-25T15:47:31;36.60;1.00
3794;DHT22;1912;51.358;12.282;2022-07-25T15:49:57;36.60;1.00
3794;DHT22;1912;51.358;12.282;2022-07-25T15:52:22;36.60;1.00
3794;DHT22;1912;51.358;12.282;2022-07-25T15:54:50;36.40;1.00
3794;DHT22;1912;51.358;12.282;2022-07-25T15:57:16;36.20;1.00
3794;DHT22;1912;51.358;12.282;2022-07-25T15:59:42;35.90;1.00
3794;DHT22;1912;51.358;12.282;2022-07-25T16:02:08;35.70;1.00
3794;DHT22;1912;51.358;12.282;2022-07-25T16:04:38;35.60;1.00
3794;DHT22;1912;51.358;12.282;2022-07-25T16:07:04;35.60;1.00
3794;DHT22;1912;51.358;12.282;2022-07-25T16:09:30;35.50;1.00
3794;DHT22;1912;51.358;12.282;2022-07-25T16:11:56;35.50;1.00
3794;DHT22;1912;51.358;12.282;2022-07-25T16:14:22;35.30;1.00
3794;DHT22;1912;51.358;12.282;2022-07-25T16:16:48;35.00;1.00
3794;DHT22;1912;51.358;12.282;2022-07-25T16:19:14;34.90;1.00
3794;DHT22;1912;51.358;12.282;2022-07-25T16:21:39;34.60;1.00
3794;DHT22;1912;51.358;12.282;2022-07-25T16:24:06;33.30;1.00
3794;DHT22;1912;51.358;12.282;2022-07-25T16:26:33;31.90;1.00
3794;DHT22;1912;51.358;12.282;2022-07-25T16:28:59;30.30;1.00
3794;DHT22;1912;51.358;12.282;2022-07-25T16:31:25;29.80;1.00
3794;DHT22;1912;51.358;12.282;2022-07-25T16:33:51;29.20;1.00